Terminal Aerodrome Forecast
Issued by NWS Shreveport, LA

Home | Current Version | Previous Version | Text Only | Print | Product List | Glossary On
Versions: 1 2 3 4 5 6 7 8 9 10 11 12 13 14 15 16 17 18 19 20 21
000
FTUS44 KSHV 231757
TAFELD
TAF
KELD 231757Z 2318/2418 31007KT P6SM FEW025 BKN035
     FM232300 28006KT P6SM VCTS SCT035 OVC100CB
     FM240100 30007KT 3SM -TSRA BR BKN015 OVC035CB
     FM240800 29005KT P6SM BKN015 OVC050
     FM241500 29010KT P6SM SCT015=

USA.gov is the U.S. government's official web portal to all federal, state and local government web resources and services.